This is the latest recevied weather packets stored in our database for station/object DG0PX-12. If no packets are shown the sender has not sent any weather packets the latest 10 day(s).
| Time | Temp. | Humidity | Pressure | Rain* | Wind** | Luminosity | Snow |
|---|---|---|---|---|---|---|---|
| 1787456648 | 17.78° C | 62% | 953.9 hPa | - | - | - | - |
| 1787455748 | 18.89° C | 58% | 954 hPa | - | - | - | - |
| 1787454848 | 18.33° C | 60% | 953.9 hPa | - | - | - | - |
| 1787453948 | 19.44° C | 58% | 954.2 hPa | - | - | - | - |
| 1787453048 | 20° C | 55% | 954.3 hPa | - | - | - | - |
| 1787452148 | 19.44° C | 58% | 954.2 hPa | - | - | - | - |
| 1787451248 | 18.89° C | 59% | 954.4 hPa | - | - | - | - |
| 1787450348 | 18.89° C | 60% | 954.4 hPa | - | - | - | - |
| 1787449448 | 19.44° C | 58% | 954.4 hPa | - | - | - | - |
| 1787448548 | 20° C | 57% | 954.5 hPa | - | - | - | - |
| 1787447648 | 18.33° C | 62% | 954.4 hPa | - | - | - | - |
| 1787446748 | 18.89° C | 63% | 954.4 hPa | - | - | - | - |
| 1787445848 | 18.33° C | 62% | 954.3 hPa | - | - | - | - |
| 1787444947 | 18.89° C | 60% | 954.5 hPa | - | - | - | - |
| 1787444047 | 19.44° C | 58% | 954.5 hPa | - | - | - | - |
| 1787443147 | 17.78° C | 65% | 954.5 hPa | - | - | - | - |
| 1787442247 | 18.33° C | 63% | 954.6 hPa | - | - | - | - |
| 1787441347 | 18.89° C | 63% | 954.6 hPa | - | - | - | - |
| 1787440447 | 20° C | 59% | 954.8 hPa | - | - | - | - |
| 1787439547 | 19.44° C | 60% | 954.8 hPa | - | - | - | - |
| 1787438647 | 20° C | 59% | 954.8 hPa | - | - | - | - |
| 1787437747 | 20.56° C | 56% | 954.8 hPa | - | - | - | - |
| 1787436847 | 20° C | 58% | 954.7 hPa | - | - | - | - |
| 1787435947 | 18.89° C | 63% | 954.7 hPa | - | - | - | - |
| 1787435047 | 20° C | 56% | 954.8 hPa | - | - | - | - |
* Rain since midnight (hover to see other rain measurements)
** Current wind speed in m/s (hover to see current wind gust speed)